< Typhoon 197520 1975 Season Typhoon 197601 >
Typhoon 197521 (NO-NAME)
General InformationTrack Information on Google Maps || Disaster Info.ResourceGoogle EarthGE AnimationAtom FeedGeoJSON
Detalied Best Track (Time Zone = UTC)
Year Month Day Hour Lat. Long. Pressure (hPa) Wind (kt) Class Image Chart
1975 12 25 06 9.5 115.7 1006 0 2 -- Chart
1975 12 25 12 10.0 114.4 1006 0 2 -- Chart
1975 12 25 18 10.5 114.4 1004 0 2 -- Chart
1975 12 26 00 11.0 114.0 1002 0 2 -- Chart
1975 12 26 06 11.2 114.0 1002 0 2 -- Chart
1975 12 26 12 11.5 113.5 998 0 9 -- Chart
1975 12 26 18 11.5 113.5 998 0 9 -- Chart
1975 12 27 00 10.6 114.0 996 0 9 -- Chart
1975 12 27 06 10.3 114.5 996 0 9 -- Chart
1975 12 27 12 9.4 115.0 996 0 9 -- Chart
1975 12 27 18 9.4 115.0 996 0 9 -- Chart
1975 12 28 00 9.4 115.5 1000 0 2 -- Chart
1975 12 28 06 9.0 115.5 1000 0 2 -- Chart
1975 12 28 12 8.5 115.5 1002 0 2 -- Chart
1975 12 28 18 8.5 116.0 1002 0 2 -- Chart
1975 12 29 00 9.0 117.0 1002 0 2 -- Chart
1975 12 29 06 9.0 118.0 1002 0 2 -- Chart
1975 12 29 12 9.0 119.0 1004 0 2 -- Chart
1975 12 29 18 9.0 119.5 1004 0 2 -- Chart
1975 12 30 00 9.0 120.0 1006 0 2 -- Chart
1975 12 30 06 9.0 120.5 1006 0 2 -- Chart
Japan Meteorological Agency Best Track Data | Correction Date : 1989-06-01
< Typhoon 197520 1975 Season Typhoon 197601 >

Help